PWSweather.com
Personal Weather Stations
Station Observations
WSTZANDT
T ZandtNL 9915PG

T ZandtNL 9915PG

Lat: 53.368403, Lon: 6.77335

Elevation: 3.28

Station Type: Davis VP2 Plus

Latest ConditionsUpdated 8:45:00 AM GMT+01:01 Monday, May 20, 2019
Currently Today's Max Today's Min Today's Average
Temperature 57.9°F14.4°C 57.9°F14.4°C 52.4°F11.3°C 55.2°F12.9°C
Dew Point 55.9°F13.3°C 55.9°F13.3°C 49.6°F9.8°C 52.8°F11.6°C
Winds 2.0 mph NNE3.2 kmh NNE 5.0 mph -8.0 kmh - - 1.4 mph 2.3 kmh
Wind Gusts 8.0 mph12.9 kmh 8.0 mph12.9 kmh - -
Humidity 93% 94% 89% 92%
Pressure 29.75 in1007.5 mb 29.76 in1007.8 mb 29.72 in1006.4 mb -
Precipitation - 0.07 in1.8 mm - -
Hour Temp Dew Point Humidity Winds Wind Gusts Pressure Precip Precip Rate Daily Precip Total
08:45 AM 57.9°F14.4°C 55.9°F13.3°C 93% 2.0 mph NNE3.2 kmh NNE 8.0 mph12.9 kmh 29.75 in1007.5 mb 0.00 in0.0 mm 0.00 in0.0 mm 0.07 in1.8 mm
08:30 AM 57.3°F14.1°C 55.6°F13.1°C 94% 2.0 mph NE3.2 kmh NE 5.0 mph8.0 kmh 29.74 in1007.1 mb 0.00 in0.0 mm 0.00 in0.0 mm 0.07 in1.8 mm
08:15 AM 56.8°F13.8°C 54.8°F12.7°C 93% Calm Calm 1.0 mph1.6 kmh 29.76 in1007.8 mb 0.00 in0.0 mm 0.00 in0.0 mm 0.07 in1.8 mm
08:00 AM 56.9°F13.8°C 54.9°F12.7°C 93% 2.0 mph NE3.2 kmh NE 3.0 mph4.8 kmh 29.76 in1007.8 mb 0.00 in0.0 mm 0.00 in0.0 mm 0.07 in1.8 mm
07:45 AM 56.9°F13.8°C 54.9°F12.7°C 93% 1.0 mph NE1.6 kmh NE 4.0 mph6.4 kmh 29.75 in1007.5 mb 0.00 in0.0 mm 0.00 in0.0 mm 0.07 in1.8 mm
07:30 AM 56.9°F13.8°C 54.9°F12.7°C 93% 1.0 mph NE1.6 kmh NE 3.0 mph4.8 kmh 29.75 in1007.5 mb 0.00 in0.0 mm 0.00 in0.0 mm 0.07 in1.8 mm
07:15 AM 56.9°F13.8°C 55.2°F12.9°C 94% 2.0 mph NE3.2 kmh NE 5.0 mph8.0 kmh 29.74 in1007.1 mb 0.00 in0.0 mm 0.00 in0.0 mm 0.07 in1.8 mm
07:00 AM 56.9°F13.8°C 55.2°F12.9°C 94% 2.0 mph NE3.2 kmh NE 3.0 mph4.8 kmh 29.74 in1007.1 mb 0.00 in0.0 mm 0.00 in0.0 mm 0.07 in1.8 mm
06:45 AM 56.7°F13.7°C 55.0°F12.8°C 94% 1.0 mph NE1.6 kmh NE 4.0 mph6.4 kmh 29.73 in1006.8 mb 0.00 in0.0 mm 0.00 in0.0 mm 0.07 in1.8 mm
06:30 AM 56.6°F13.7°C 54.9°F12.7°C 94% 1.0 mph NE1.6 kmh NE 4.0 mph6.4 kmh 29.73 in1006.8 mb 0.00 in0.0 mm 0.00 in0.0 mm 0.07 in1.8 mm
06:15 AM 56.3°F13.5°C 54.6°F12.6°C 94% Calm Calm -- 29.73 in1006.8 mb 0.00 in0.0 mm 0.00 in0.0 mm 0.07 in1.8 mm
06:00 AM 55.7°F13.2°C 54.0°F12.2°C 94% 1.0 mph NE1.6 kmh NE 3.0 mph4.8 kmh 29.74 in1007.1 mb 0.00 in0.0 mm 0.00 in0.0 mm 0.07 in1.8 mm
05:45 AM 55.1°F12.8°C 53.4°F11.9°C 94% 3.0 mph NE4.8 kmh NE 6.0 mph9.7 kmh 29.73 in1006.8 mb 0.00 in0.0 mm 0.00 in0.0 mm 0.07 in1.8 mm
05:30 AM 52.9°F11.6°C 50.9°F10.5°C 93% 1.0 mph NE1.6 kmh NE 5.0 mph8.0 kmh 29.73 in1006.8 mb 0.00 in0.0 mm 0.00 in0.0 mm 0.07 in1.8 mm
05:15 AM 52.7°F11.5°C 50.4°F10.2°C 92% Calm Calm 2.0 mph3.2 kmh 29.73 in1006.8 mb 0.00 in0.0 mm 0.00 in0.0 mm 0.07 in1.8 mm
05:00 AM 52.7°F11.5°C 50.4°F10.2°C 92% Calm Calm 1.0 mph1.6 kmh 29.73 in1006.8 mb 0.00 in0.0 mm 0.00 in0.0 mm 0.07 in1.8 mm
04:45 AM 52.7°F11.5°C 50.4°F10.2°C 92% Calm Calm -- 29.73 in1006.8 mb 0.00 in0.0 mm 0.00 in0.0 mm 0.07 in1.8 mm
04:30 AM 52.8°F11.6°C 50.5°F10.3°C 92% Calm Calm -- 29.73 in1006.8 mb 0.00 in0.0 mm 0.00 in0.0 mm 0.07 in1.8 mm
04:15 AM 52.7°F11.5°C 50.4°F10.2°C 92% Calm Calm -- 29.73 in1006.8 mb 0.00 in0.0 mm 0.00 in0.0 mm 0.07 in1.8 mm
04:00 AM 52.4°F11.3°C 49.8°F9.9°C 91% Calm Calm -- 29.73 in1006.8 mb 0.00 in0.0 mm 0.00 in0.0 mm 0.07 in1.8 mm
03:45 AM 52.6°F11.4°C 50.0°F10.0°C 91% 1.0 mph NE1.6 kmh NE 4.0 mph6.4 kmh 29.72 in1006.4 mb 0.00 in0.0 mm 0.00 in0.0 mm 0.07 in1.8 mm
03:30 AM 53.2°F11.8°C 50.6°F10.3°C 91% 1.0 mph NE1.6 kmh NE 4.0 mph6.4 kmh 29.72 in1006.4 mb 0.00 in0.0 mm 0.00 in0.0 mm 0.07 in1.8 mm
03:15 AM 53.3°F11.8°C 50.7°F10.4°C 91% 3.0 mph NE4.8 kmh NE 4.0 mph6.4 kmh 29.73 in1006.8 mb 0.00 in0.0 mm 0.00 in0.0 mm 0.07 in1.8 mm
03:00 AM 52.8°F11.6°C 49.6°F9.8°C 89% 2.0 mph NE3.2 kmh NE 4.0 mph6.4 kmh 29.73 in1006.8 mb 0.00 in0.0 mm 0.00 in0.0 mm 0.07 in1.8 mm
02:45 AM 53.8°F12.1°C 50.9°F10.5°C 90% Calm Calm -- 29.72 in1006.4 mb 0.00 in0.0 mm 0.00 in0.0 mm 0.07 in1.8 mm
02:30 AM 54.5°F12.5°C 51.6°F10.9°C 90% Calm Calm -- 29.73 in1006.8 mb 0.00 in0.0 mm 0.00 in0.0 mm 0.07 in1.8 mm
02:15 AM 54.9°F12.7°C 52.3°F11.3°C 91% Calm Calm 1.0 mph1.6 kmh 29.73 in1006.8 mb 0.00 in0.0 mm 0.00 in0.0 mm 0.07 in1.8 mm
02:00 AM 55.1°F12.8°C 52.5°F11.4°C 91% 1.0 mph NE1.6 kmh NE 2.0 mph3.2 kmh 29.73 in1006.8 mb 0.00 in0.0 mm 0.00 in0.0 mm 0.07 in1.8 mm
01:45 AM 55.3°F12.9°C 52.4°F11.3°C 90% Calm Calm 2.0 mph3.2 kmh 29.73 in1006.8 mb 0.00 in0.0 mm 0.00 in0.0 mm 0.07 in1.8 mm
01:30 AM 55.4°F13.0°C 52.5°F11.4°C 90% Calm Calm 1.0 mph1.6 kmh 29.73 in1006.8 mb 0.00 in0.0 mm 0.00 in0.0 mm 0.07 in1.8 mm
01:15 AM 55.5°F13.1°C 52.6°F11.4°C 90% 3.0 mph NE4.8 kmh NE 4.0 mph6.4 kmh 29.73 in1006.8 mb 0.00 in0.0 mm 0.00 in0.0 mm 0.07 in1.8 mm
01:00 AM 55.9°F13.3°C 53.0°F11.7°C 90% 4.0 mph NE6.4 kmh NE 6.0 mph9.7 kmh 29.73 in1006.8 mb 0.01 in0.3 mm 0.00 in0.0 mm 0.07 in1.8 mm
12:45 AM 56.4°F13.6°C 53.5°F11.9°C 90% 4.0 mph NE6.4 kmh NE 6.0 mph9.7 kmh 29.72 in1006.4 mb 0.01 in0.3 mm 0.00 in0.0 mm 0.07 in1.8 mm
12:30 AM 56.8°F13.8°C 53.6°F12.0°C 89% 4.0 mph NE6.4 kmh NE 6.0 mph9.7 kmh 29.72 in1006.4 mb 0.04 in1.0 mm 0.00 in0.0 mm 0.07 in1.8 mm
12:15 AM 57.1°F13.9°C 53.9°F12.2°C 89% 4.0 mph NE6.4 kmh NE 6.0 mph9.7 kmh 29.73 in1006.8 mb 0.06 in1.5 mm 0.00 in0.0 mm 0.07 in1.8 mm
12:00 AM 57.4°F14.1°C 54.2°F12.3°C 89% 5.0 mph NE8.0 kmh NE 8.0 mph12.9 kmh 29.74 in1007.1 mb 0.06 in1.5 mm 0.00 in0.0 mm 0.06 in1.5 mm